Arcadia — ZCDN9 — position and weather

sailwx.info

Track history (hours):
 
Tides and Currents Weather Stations Pressure Air Temp Water Temp Dewpoint Dewpoint Depression Visibility Wind Speed Wind Dir Waves Ship Positions

Arcadia

Last reported at 2018-Feb-21 20:00 UTC. Time now 2018-Feb-21 22:56 UTC.
Position N 18°30' W 059°18'.

Length 285.1 m; beam 32.2 m; draft 8 m.

Type: Passenger vessel. MMSI: 310473000.

Wind from 050 at 23 knots

Barometer 1020.5 mb
Air temperature 27.2 ° C
Visibility: greater than 10.8 NM
Dewpoint 19.5 ° C
Water temperature 25.0 ° C

Date/timePositionNaut miles runAvg speedWind from/ knotsBaromVisibWave heightAir tempDewpointWater temp
2018-Feb-21 20:00N 18°30' W 059°18'58816.8 050 / 231020.510.8 27.219.525.0
2018-Feb-20 09:00N 23°00' W 050°00'   040 / 171021.910.8 22.216.724.3
2018-Feb-17 19:00N 29°18' W 032°12'20218.3 170 / 31025.610.8 19.715.119.4
2018-Feb-17 08:00N 30°18' W 028°30'   140 / 41026.310.8 18.413.119.1
2018-Feb-12 12:23N 47°58' W 005°60'613.7
2018-Feb-12 11:55N 48°03' W 005°54'613.8
2018-Feb-12 11:30N 48°07' W 005°48'714.0
2018-Feb-12 11:00N 48°13' W 005°41'714.0
2018-Feb-12 10:29N 48°19' W 005°37'714.4
2018-Feb-12 10:00N 48°25' W 005°31'814.8
2018-Feb-12 09:29N 48°31' W 005°24'715.1
2018-Feb-12 09:00N 48°37' W 005°17'815.4
2018-Feb-12 08:30N 48°42' W 005°09'815.4
2018-Feb-12 08:00N 48°47' W 005°00'815.5
2018-Feb-12 07:30N 48°53' W 004°51'815.4
2018-Feb-12 07:00N 48°58' W 004°43'715.2
2018-Feb-12 06:30N 49°03' W 004°34'915.0
2018-Feb-12 05:52N 49°09' W 004°23'5114.1
2018-Feb-12 02:15N 49°44' W 003°26'314.0
2018-Feb-12 02:00N 49°45' W 003°21'714.5
2018-Feb-12 01:30N 49°50' W 003°12'715.2
2018-Feb-12 01:00N 49°55' W 003°03'815.3
2018-Feb-12 00:30N 49°59' W 002°53'815.8
2018-Feb-12 00:00N 50°00' W 002°41'816.1
2018-Feb-11 23:30N 50°02' W 002°29'816.3
2018-Feb-11 23:00N 50°06' W 002°17'816.6
2018-Feb-11 22:31N 50°11' W 002°07'816.3
2018-Feb-11 22:00N 50°15' W 001°56'816.0
2018-Feb-11 21:30N 50°18' W 001°45'815.6
2018-Feb-11 21:01N 50°22' W 001°34'815.2
2018-Feb-11 20:30N 50°26' W 001°24'  
Track history (hours):
 
Tides and Currents Weather Stations Pressure Air Temp Water Temp Dewpoint Dewpoint Depression Visibility Wind Speed Wind Dir Waves Ship Positions

Arcadia

Last reported at 2018-Feb-21 20:00 UTC. Time now 2018-Feb-21 22:56 UTC.
Position N 18°30' W 059°18'.

Length 285.1 m; beam 32.2 m; draft 8 m.

Type: Passenger vessel. MMSI: 310473000.

Wind from 050 at 23 knots

Barometer 1020.5 mb
Air temperature 27.2 ° C
Visibility: greater than 10.8 NM
Dewpoint 19.5 ° C
Water temperature 25.0 ° C

Date/timePositionNaut miles runAvg speedWind from/ knotsBaromVisibWave heightAir tempDewpointWater temp
2018-Feb-21 20:00N 18°30' W 059°18'58816.8 050 / 231020.510.8 27.219.525.0
2018-Feb-20 09:00N 23°00' W 050°00'   040 / 171021.910.8 22.216.724.3
2018-Feb-17 19:00N 29°18' W 032°12'20218.3 170 / 31025.610.8 19.715.119.4
2018-Feb-17 08:00N 30°18' W 028°30'   140 / 41026.310.8 18.413.119.1
2018-Feb-12 12:23N 47°58' W 005°60'613.7
2018-Feb-12 11:55N 48°03' W 005°54'613.8
2018-Feb-12 11:30N 48°07' W 005°48'714.0
2018-Feb-12 11:00N 48°13' W 005°41'714.0
2018-Feb-12 10:29N 48°19' W 005°37'714.4
2018-Feb-12 10:00N 48°25' W 005°31'814.8
2018-Feb-12 09:29N 48°31' W 005°24'715.1
2018-Feb-12 09:00N 48°37' W 005°17'815.4
2018-Feb-12 08:30N 48°42' W 005°09'815.4
2018-Feb-12 08:00N 48°47' W 005°00'815.5
2018-Feb-12 07:30N 48°53' W 004°51'815.4
2018-Feb-12 07:00N 48°58' W 004°43'715.2
2018-Feb-12 06:30N 49°03' W 004°34'915.0
2018-Feb-12 05:52N 49°09' W 004°23'5114.1
2018-Feb-12 02:15N 49°44' W 003°26'314.0
2018-Feb-12 02:00N 49°45' W 003°21'714.5
2018-Feb-12 01:30N 49°50' W 003°12'715.2
2018-Feb-12 01:00N 49°55' W 003°03'815.3
2018-Feb-12 00:30N 49°59' W 002°53'815.8
2018-Feb-12 00:00N 50°00' W 002°41'816.1
2018-Feb-11 23:30N 50°02' W 002°29'816.3
2018-Feb-11 23:00N 50°06' W 002°17'816.6
2018-Feb-11 22:31N 50°11' W 002°07'816.3
2018-Feb-11 22:00N 50°15' W 001°56'816.0
2018-Feb-11 21:30N 50°18' W 001°45'815.6
2018-Feb-11 21:01N 50°22' W 001°34'815.2
2018-Feb-11 20:30N 50°26' W 001°24'  

Dump ship's entire track history